sensor_id;sensor_type;location;lat;lon;timestamp;temperature;humidity
6379;DHT22;3222;48.858;10.128;2024-01-11T00:02:23;-2.50;99.90
6379;DHT22;3222;48.858;10.128;2024-01-11T00:04:48;-2.50;99.90
6379;DHT22;3222;48.858;10.128;2024-01-11T00:07:14;-2.50;99.90
6379;DHT22;3222;48.858;10.128;2024-01-11T00:09:42;-2.60;99.90
6379;DHT22;3222;48.858;10.128;2024-01-11T00:12:08;-2.60;99.90
6379;DHT22;3222;48.858;10.128;2024-01-11T00:14:34;-2.60;99.90
6379;DHT22;3222;48.858;10.128;2024-01-11T00:17:00;-2.60;99.90
6379;DHT22;3222;48.858;10.128;2024-01-11T00:19:26;-2.70;99.90
6379;DHT22;3222;48.858;10.128;2024-01-11T00:21:52;-2.60;99.90
6379;DHT22;3222;48.858;10.128;2024-01-11T00:24:17;-2.60;99.90
6379;DHT22;3222;48.858;10.128;2024-01-11T00:26:43;-2.60;99.90
6379;DHT22;3222;48.858;10.128;2024-01-11T00:29:09;-2.70;99.90
6379;DHT22;3222;48.858;10.128;2024-01-11T00:31:35;-2.70;99.90
6379;DHT22;3222;48.858;10.128;2024-01-11T00:34:01;-2.70;99.90
6379;DHT22;3222;48.858;10.128;2024-01-11T00:36:26;-2.70;99.90
6379;DHT22;3222;48.858;10.128;2024-01-11T00:38:54;-2.80;99.90
6379;DHT22;3222;48.858;10.128;2024-01-11T00:41:19;-2.80;99.90
6379;DHT22;3222;48.858;10.128;2024-01-11T00:43:46;-2.90;99.90
6379;DHT22;3222;48.858;10.128;2024-01-11T00:46:12;-2.80;99.90
6379;DHT22;3222;48.858;10.128;2024-01-11T00:48:37;-2.70;99.90
6379;DHT22;3222;48.858;10.128;2024-01-11T00:51:06;-2.60;99.90
6379;DHT22;3222;48.858;10.128;2024-01-11T00:53:32;-2.60;99.90
6379;DHT22;3222;48.858;10.128;2024-01-11T00:55:59;-2.60;99.90
6379;DHT22;3222;48.858;10.128;2024-01-11T00:58:25;-2.70;99.90
6379;DHT22;3222;48.858;10.128;2024-01-11T01:00:51;-2.70;99.90
6379;DHT22;3222;48.858;10.128;2024-01-11T01:03:19;-2.70;99.90
6379;DHT22;3222;48.858;10.128;2024-01-11T01:05:45;-2.60;99.90
6379;DHT22;3222;48.858;10.128;2024-01-11T01:08:11;-2.60;99.90
6379;DHT22;3222;48.858;10.128;2024-01-11T01:10:37;-2.60;99.90
6379;DHT22;3222;48.858;10.128;2024-01-11T01:13:03;-2.60;99.90
6379;DHT22;3222;48.858;10.128;2024-01-11T01:15:28;-2.50;99.90
6379;DHT22;3222;48.858;10.128;2024-01-11T01:17:54;-2.60;99.90
6379;DHT22;3222;48.858;10.128;2024-01-11T01:20:20;-2.60;99.90
6379;DHT22;3222;48.858;10.128;2024-01-11T01:22:45;-2.70;99.90
6379;DHT22;3222;48.858;10.128;2024-01-11T01:25:11;-2.80;99.90
6379;DHT22;3222;48.858;10.128;2024-01-11T01:27:37;-2.90;99.90
6379;DHT22;3222;48.858;10.128;2024-01-11T01:30:04;-2.80;99.90
6379;DHT22;3222;48.858;10.128;2024-01-11T01:32:29;-2.70;99.90
6379;DHT22;3222;48.858;10.128;2024-01-11T01:34:56;-2.60;99.90
6379;DHT22;3222;48.858;10.128;2024-01-11T01:37:21;-2.50;99.90
6379;DHT22;3222;48.858;10.128;2024-01-11T01:39:47;-2.70;99.90
6379;DHT22;3222;48.858;10.128;2024-01-11T01:42:13;-2.80;99.90
6379;DHT22;3222;48.858;10.128;2024-01-11T01:44:38;-2.90;99.90
6379;DHT22;3222;48.858;10.128;2024-01-11T01:47:07;-2.90;99.90
6379;DHT22;3222;48.858;10.128;2024-01-11T01:49:34;-3.00;99.90
6379;DHT22;3222;48.858;10.128;2024-01-11T01:52:01;-2.90;99.90
6379;DHT22;3222;48.858;10.128;2024-01-11T01:54:27;-2.80;99.90
6379;DHT22;3222;48.858;10.128;2024-01-11T01:56:53;-2.80;99.90
6379;DHT22;3222;48.858;10.128;2024-01-11T01:59:20;-2.80;99.90
6379;DHT22;3222;48.858;10.128;2024-01-11T02:01:47;-2.80;99.90
6379;DHT22;3222;48.858;10.128;2024-01-11T02:04:13;-2.70;99.90
6379;DHT22;3222;48.858;10.128;2024-01-11T02:06:40;-2.70;99.90
6379;DHT22;3222;48.858;10.128;2024-01-11T02:09:06;-2.70;99.90
6379;DHT22;3222;48.858;10.128;2024-01-11T02:11:34;-2.80;99.90
6379;DHT22;3222;48.858;10.128;2024-01-11T02:14:00;-2.90;99.90
6379;DHT22;3222;48.858;10.128;2024-01-11T02:16:25;-2.90;99.90
6379;DHT22;3222;48.858;10.128;2024-01-11T02:18:51;-3.00;99.90
6379;DHT22;3222;48.858;10.128;2024-01-11T02:21:17;-3.00;99.90
6379;DHT22;3222;48.858;10.128;2024-01-11T02:26:14;-3.00;99.90
6379;DHT22;3222;48.858;10.128;2024-01-11T02:28:44;-2.90;99.90
6379;DHT22;3222;48.858;10.128;2024-01-11T02:31:11;-2.80;99.90
6379;DHT22;3222;48.858;10.128;2024-01-11T02:33:38;-2.70;99.90
6379;DHT22;3222;48.858;10.128;2024-01-11T02:36:05;-2.90;99.90
6379;DHT22;3222;48.858;10.128;2024-01-11T02:38:32;-3.00;99.90
6379;DHT22;3222;48.858;10.128;2024-01-11T02:40:59;-3.10;99.90
6379;DHT22;3222;48.858;10.128;2024-01-11T02:43:25;-2.90;99.90
6379;DHT22;3222;48.858;10.128;2024-01-11T02:45:55;-2.80;99.90
6379;DHT22;3222;48.858;10.128;2024-01-11T02:48:21;-2.90;99.90
6379;DHT22;3222;48.858;10.128;2024-01-11T02:50:48;-3.00;99.90
6379;DHT22;3222;48.858;10.128;2024-01-11T02:53:14;-2.90;99.90
6379;DHT22;3222;48.858;10.128;2024-01-11T02:55:40;-2.90;99.90
6379;DHT22;3222;48.858;10.128;2024-01-11T02:58:05;-2.90;99.90
6379;DHT22;3222;48.858;10.128;2024-01-11T03:00:31;-3.10;99.90
6379;DHT22;3222;48.858;10.128;2024-01-11T03:02:57;-3.10;99.90
6379;DHT22;3222;48.858;10.128;2024-01-11T03:05:22;-3.10;99.90
6379;DHT22;3222;48.858;10.128;2024-01-11T03:07:48;-3.10;99.90
6379;DHT22;3222;48.858;10.128;2024-01-11T03:10:14;-2.90;99.90
6379;DHT22;3222;48.858;10.128;2024-01-11T03:12:40;-3.00;99.90
6379;DHT22;3222;48.858;10.128;2024-01-11T03:15:06;-2.90;99.90
6379;DHT22;3222;48.858;10.128;2024-01-11T03:17:33;-2.90;99.90
6379;DHT22;3222;48.858;10.128;2024-01-11T03:19:58;-2.80;99.90
6379;DHT22;3222;48.858;10.128;2024-01-11T03:22:25;-2.80;99.90
6379;DHT22;3222;48.858;10.128;2024-01-11T03:24:51;-2.90;99.90
6379;DHT22;3222;48.858;10.128;2024-01-11T03:27:17;-2.90;99.90
6379;DHT22;3222;48.858;10.128;2024-01-11T03:29:42;-3.00;99.90
6379;DHT22;3222;48.858;10.128;2024-01-11T03:32:08;-3.10;99.90
6379;DHT22;3222;48.858;10.128;2024-01-11T03:34:34;-3.00;99.90
6379;DHT22;3222;48.858;10.128;2024-01-11T03:36:59;-3.00;99.90
6379;DHT22;3222;48.858;10.128;2024-01-11T03:39:25;-3.00;99.90
6379;DHT22;3222;48.858;10.128;2024-01-11T03:41:51;-2.80;99.90
6379;DHT22;3222;48.858;10.128;2024-01-11T03:44:17;-2.80;99.90
6379;DHT22;3222;48.858;10.128;2024-01-11T03:46:42;-2.80;99.90
6379;DHT22;3222;48.858;10.128;2024-01-11T03:49:08;-2.90;99.90
6379;DHT22;3222;48.858;10.128;2024-01-11T03:51:35;-2.90;99.90
6379;DHT22;3222;48.858;10.128;2024-01-11T03:54:01;-3.10;99.90
6379;DHT22;3222;48.858;10.128;2024-01-11T03:56:26;-3.10;99.90
6379;DHT22;3222;48.858;10.128;2024-01-11T03:58:52;-3.30;99.90
6379;DHT22;3222;48.858;10.128;2024-01-11T04:01:18;-3.40;99.90
6379;DHT22;3222;48.858;10.128;2024-01-11T04:03:44;-3.50;99.90
6379;DHT22;3222;48.858;10.128;2024-01-11T04:06:19;-3.60;99.90
6379;DHT22;3222;48.858;10.128;2024-01-11T04:08:47;-3.50;99.90
6379;DHT22;3222;48.858;10.128;2024-01-11T04:11:12;-3.60;99.90
6379;DHT22;3222;48.858;10.128;2024-01-11T04:13:38;-3.40;99.90
6379;DHT22;3222;48.858;10.128;2024-01-11T04:16:05;-3.30;99.90
6379;DHT22;3222;48.858;10.128;2024-01-11T04:18:32;-3.30;99.90
6379;DHT22;3222;48.858;10.128;2024-01-11T04:20:58;-3.30;99.90
6379;DHT22;3222;48.858;10.128;2024-01-11T04:23:23;-3.30;99.90
6379;DHT22;3222;48.858;10.128;2024-01-11T04:25:50;-3.20;99.90
6379;DHT22;3222;48.858;10.128;2024-01-11T04:28:17;-3.20;99.90
6379;DHT22;3222;48.858;10.128;2024-01-11T04:30:43;-3.10;99.90
6379;DHT22;3222;48.858;10.128;2024-01-11T04:33:09;-3.30;99.90
6379;DHT22;3222;48.858;10.128;2024-01-11T04:35:36;-3.30;99.90
6379;DHT22;3222;48.858;10.128;2024-01-11T04:38:01;-3.40;99.90
6379;DHT22;3222;48.858;10.128;2024-01-11T04:40:27;-3.30;99.90
6379;DHT22;3222;48.858;10.128;2024-01-11T04:42:53;-3.20;99.90
6379;DHT22;3222;48.858;10.128;2024-01-11T04:45:19;-3.10;99.90
6379;DHT22;3222;48.858;10.128;2024-01-11T04:47:44;-3.00;99.90
6379;DHT22;3222;48.858;10.128;2024-01-11T04:50:10;-3.10;99.90
6379;DHT22;3222;48.858;10.128;2024-01-11T04:52:36;-3.20;99.90
6379;DHT22;3222;48.858;10.128;2024-01-11T04:55:02;-3.30;99.90
6379;DHT22;3222;48.858;10.128;2024-01-11T04:57:28;-3.40;99.90
6379;DHT22;3222;48.858;10.128;2024-01-11T04:59:53;-3.50;99.90
6379;DHT22;3222;48.858;10.128;2024-01-11T05:02:22;-3.60;99.90
6379;DHT22;3222;48.858;10.128;2024-01-11T05:04:48;-3.60;99.90
6379;DHT22;3222;48.858;10.128;2024-01-11T05:07:14;-3.70;99.90
6379;DHT22;3222;48.858;10.128;2024-01-11T05:09:39;-3.80;99.90
6379;DHT22;3222;48.858;10.128;2024-01-11T05:12:05;-3.70;99.90
6379;DHT22;3222;48.858;10.128;2024-01-11T05:14:31;-3.70;99.90
6379;DHT22;3222;48.858;10.128;2024-01-11T05:16:57;-3.80;99.90
6379;DHT22;3222;48.858;10.128;2024-01-11T05:19:23;-3.80;99.90
6379;DHT22;3222;48.858;10.128;2024-01-11T05:21:49;-3.80;99.90
6379;DHT22;3222;48.858;10.128;2024-01-11T05:24:14;-3.80;99.90
6379;DHT22;3222;48.858;10.128;2024-01-11T05:26:40;-3.70;99.90
6379;DHT22;3222;48.858;10.128;2024-01-11T05:29:05;-3.80;99.90
6379;DHT22;3222;48.858;10.128;2024-01-11T05:31:31;-3.70;99.90
6379;DHT22;3222;48.858;10.128;2024-01-11T05:33:57;-3.60;99.90
6379;DHT22;3222;48.858;10.128;2024-01-11T05:36:23;-3.50;99.90
6379;DHT22;3222;48.858;10.128;2024-01-11T05:38:48;-3.40;99.90
6379;DHT22;3222;48.858;10.128;2024-01-11T05:41:14;-3.40;99.90
6379;DHT22;3222;48.858;10.128;2024-01-11T05:43:41;-3.50;99.90
6379;DHT22;3222;48.858;10.128;2024-01-11T05:46:07;-3.60;99.90
6379;DHT22;3222;48.858;10.128;2024-01-11T05:48:33;-3.70;99.90
6379;DHT22;3222;48.858;10.128;2024-01-11T05:50:59;-3.70;99.90
6379;DHT22;3222;48.858;10.128;2024-01-11T05:53:25;-3.80;99.90
6379;DHT22;3222;48.858;10.128;2024-01-11T05:55:53;-3.80;99.90
6379;DHT22;3222;48.858;10.128;2024-01-11T05:58:19;-3.90;99.90
6379;DHT22;3222;48.858;10.128;2024-01-11T06:00:45;-4.00;99.90
6379;DHT22;3222;48.858;10.128;2024-01-11T06:03:14;-4.00;99.90
6379;DHT22;3222;48.858;10.128;2024-01-11T06:05:40;-4.00;99.90
6379;DHT22;3222;48.858;10.128;2024-01-11T06:08:06;-4.00;99.90
6379;DHT22;3222;48.858;10.128;2024-01-11T06:10:33;-4.00;99.90
6379;DHT22;3222;48.858;10.128;2024-01-11T06:12:58;-4.00;99.90
6379;DHT22;3222;48.858;10.128;2024-01-11T06:15:24;-4.00;99.90
6379;DHT22;3222;48.858;10.128;2024-01-11T06:17:50;-4.00;99.90
6379;DHT22;3222;48.858;10.128;2024-01-11T06:20:16;-4.10;99.90
6379;DHT22;3222;48.858;10.128;2024-01-11T06:22:41;-4.00;99.90
6379;DHT22;3222;48.858;10.128;2024-01-11T06:25:07;-3.90;99.90
6379;DHT22;3222;48.858;10.128;2024-01-11T06:27:33;-3.70;99.90
6379;DHT22;3222;48.858;10.128;2024-01-11T06:29:59;-3.70;99.90
6379;DHT22;3222;48.858;10.128;2024-01-11T06:32:24;-3.70;99.90
6379;DHT22;3222;48.858;10.128;2024-01-11T06:34:50;-3.80;99.90
6379;DHT22;3222;48.858;10.128;2024-01-11T06:37:16;-3.90;99.90
6379;DHT22;3222;48.858;10.128;2024-01-11T06:39:42;-3.90;99.90
6379;DHT22;3222;48.858;10.128;2024-01-11T06:42:08;-3.90;99.90
6379;DHT22;3222;48.858;10.128;2024-01-11T06:44:34;-3.90;99.90
6379;DHT22;3222;48.858;10.128;2024-01-11T06:47:00;-4.00;99.90
6379;DHT22;3222;48.858;10.128;2024-01-11T06:49:27;-4.00;99.90
6379;DHT22;3222;48.858;10.128;2024-01-11T06:51:52;-4.00;99.90
6379;DHT22;3222;48.858;10.128;2024-01-11T06:54:18;-4.00;99.90
6379;DHT22;3222;48.858;10.128;2024-01-11T06:56:44;-4.10;99.90
6379;DHT22;3222;48.858;10.128;2024-01-11T06:59:10;-4.10;99.90
6379;DHT22;3222;48.858;10.128;2024-01-11T07:01:35;-4.20;99.90
6379;DHT22;3222;48.858;10.128;2024-01-11T07:04:01;-4.30;99.90
6379;DHT22;3222;48.858;10.128;2024-01-11T07:06:27;-4.20;99.90
6379;DHT22;3222;48.858;10.128;2024-01-11T07:08:53;-4.10;99.90
6379;DHT22;3222;48.858;10.128;2024-01-11T07:11:19;-4.10;99.90
6379;DHT22;3222;48.858;10.128;2024-01-11T07:13:44;-4.10;99.90
6379;DHT22;3222;48.858;10.128;2024-01-11T07:16:10;-4.20;99.90
6379;DHT22;3222;48.858;10.128;2024-01-11T07:18:36;-4.10;99.90
6379;DHT22;3222;48.858;10.128;2024-01-11T07:21:01;-4.10;99.90
6379;DHT22;3222;48.858;10.128;2024-01-11T07:23:27;-4.00;99.90
6379;DHT22;3222;48.858;10.128;2024-01-11T07:25:53;-4.00;99.90
6379;DHT22;3222;48.858;10.128;2024-01-11T07:28:19;-4.10;99.90
6379;DHT22;3222;48.858;10.128;2024-01-11T07:30:50;-4.20;99.90
6379;DHT22;3222;48.858;10.128;2024-01-11T07:33:16;-4.20;99.90
6379;DHT22;3222;48.858;10.128;2024-01-11T07:35:41;-4.10;99.90
6379;DHT22;3222;48.858;10.128;2024-01-11T07:38:07;-4.20;99.90
6379;DHT22;3222;48.858;10.128;2024-01-11T07:40:33;-4.20;99.90
6379;DHT22;3222;48.858;10.128;2024-01-11T07:42:58;-4.20;99.90
6379;DHT22;3222;48.858;10.128;2024-01-11T07:45:24;-4.20;99.90
6379;DHT22;3222;48.858;10.128;2024-01-11T07:47:50;-4.30;99.90
6379;DHT22;3222;48.858;10.128;2024-01-11T07:50:15;-4.20;99.90
6379;DHT22;3222;48.858;10.128;2024-01-11T07:52:41;-4.30;99.90
6379;DHT22;3222;48.858;10.128;2024-01-11T07:55:08;-4.30;99.90
6379;DHT22;3222;48.858;10.128;2024-01-11T07:57:35;-4.30;99.90
6379;DHT22;3222;48.858;10.128;2024-01-11T08:00:01;-4.30;99.90
6379;DHT22;3222;48.858;10.128;2024-01-11T08:02:38;-4.30;99.90
6379;DHT22;3222;48.858;10.128;2024-01-11T08:05:04;-4.30;99.90
6379;DHT22;3222;48.858;10.128;2024-01-11T08:07:30;-4.30;99.90
6379;DHT22;3222;48.858;10.128;2024-01-11T08:09:56;-4.40;99.90
6379;DHT22;3222;48.858;10.128;2024-01-11T08:12:22;-4.50;99.90
6379;DHT22;3222;48.858;10.128;2024-01-11T08:14:48;-4.50;99.90
6379;DHT22;3222;48.858;10.128;2024-01-11T08:17:14;-4.50;99.90
6379;DHT22;3222;48.858;10.128;2024-01-11T08:19:40;-4.40;99.90
6379;DHT22;3222;48.858;10.128;2024-01-11T08:22:08;-4.40;99.90
6379;DHT22;3222;48.858;10.128;2024-01-11T08:24:35;-4.30;99.90
6379;DHT22;3222;48.858;10.128;2024-01-11T08:27:00;-4.30;99.90
6379;DHT22;3222;48.858;10.128;2024-01-11T08:29:26;-4.30;99.90
6379;DHT22;3222;48.858;10.128;2024-01-11T08:31:53;-4.20;99.90
6379;DHT22;3222;48.858;10.128;2024-01-11T08:34:20;-4.10;99.90
6379;DHT22;3222;48.858;10.128;2024-01-11T08:36:46;-4.10;99.90
6379;DHT22;3222;48.858;10.128;2024-01-11T08:39:13;-4.20;99.90
6379;DHT22;3222;48.858;10.128;2024-01-11T08:41:39;-4.10;99.90
6379;DHT22;3222;48.858;10.128;2024-01-11T08:44:05;-4.00;99.90
6379;DHT22;3222;48.858;10.128;2024-01-11T08:46:31;-4.00;99.90
6379;DHT22;3222;48.858;10.128;2024-01-11T08:48:59;-4.10;99.90
6379;DHT22;3222;48.858;10.128;2024-01-11T08:51:25;-4.10;99.90
6379;DHT22;3222;48.858;10.128;2024-01-11T08:53:52;-4.10;99.90
6379;DHT22;3222;48.858;10.128;2024-01-11T08:56:21;-4.10;99.90
6379;DHT22;3222;48.858;10.128;2024-01-11T08:58:46;-4.00;99.90
6379;DHT22;3222;48.858;10.128;2024-01-11T09:01:14;-4.00;99.90
6379;DHT22;3222;48.858;10.128;2024-01-11T09:03:40;-4.00;99.90
6379;DHT22;3222;48.858;10.128;2024-01-11T09:06:06;-4.00;99.90
6379;DHT22;3222;48.858;10.128;2024-01-11T09:08:32;-3.90;99.90
6379;DHT22;3222;48.858;10.128;2024-01-11T09:10:58;-3.80;99.90
6379;DHT22;3222;48.858;10.128;2024-01-11T09:13:25;-3.70;99.90
6379;DHT22;3222;48.858;10.128;2024-01-11T09:15:52;-3.60;99.90
6379;DHT22;3222;48.858;10.128;2024-01-11T09:18:18;-3.60;99.90
6379;DHT22;3222;48.858;10.128;2024-01-11T09:20:44;-3.70;99.90
6379;DHT22;3222;48.858;10.128;2024-01-11T09:23:10;-3.60;99.90
6379;DHT22;3222;48.858;10.128;2024-01-11T09:25:35;-3.50;99.90
6379;DHT22;3222;48.858;10.128;2024-01-11T09:28:01;-3.50;99.90
6379;DHT22;3222;48.858;10.128;2024-01-11T09:30:27;-3.40;99.90
6379;DHT22;3222;48.858;10.128;2024-01-11T09:32:53;-3.00;99.90
6379;DHT22;3222;48.858;10.128;2024-01-11T09:35:18;-2.90;99.90
6379;DHT22;3222;48.858;10.128;2024-01-11T09:37:44;-2.90;99.90
6379;DHT22;3222;48.858;10.128;2024-01-11T09:40:12;-2.90;99.90
6379;DHT22;3222;48.858;10.128;2024-01-11T09:42:39;-2.80;99.90
6379;DHT22;3222;48.858;10.128;2024-01-11T09:45:12;-2.70;99.90
6379;DHT22;3222;48.858;10.128;2024-01-11T09:47:38;-2.70;99.90
6379;DHT22;3222;48.858;10.128;2024-01-11T09:50:08;-2.70;99.90
6379;DHT22;3222;48.858;10.128;2024-01-11T09:52:36;-2.70;99.90
6379;DHT22;3222;48.858;10.128;2024-01-11T09:55:03;-2.70;99.90
6379;DHT22;3222;48.858;10.128;2024-01-11T09:57:31;-2.70;99.90
6379;DHT22;3222;48.858;10.128;2024-01-11T09:59:58;-2.70;99.90
6379;DHT22;3222;48.858;10.128;2024-01-11T10:02:25;-2.70;99.90
6379;DHT22;3222;48.858;10.128;2024-01-11T10:04:54;-2.60;99.90
6379;DHT22;3222;48.858;10.128;2024-01-11T10:07:22;-2.50;99.90
6379;DHT22;3222;48.858;10.128;2024-01-11T10:09:48;-2.60;99.90
6379;DHT22;3222;48.858;10.128;2024-01-11T10:12:15;-2.40;99.90
6379;DHT22;3222;48.858;10.128;2024-01-11T10:14:41;-2.20;99.90
6379;DHT22;3222;48.858;10.128;2024-01-11T10:17:07;-2.10;99.90
6379;DHT22;3222;48.858;10.128;2024-01-11T10:19:33;-2.10;99.90
6379;DHT22;3222;48.858;10.128;2024-01-11T10:21:59;-1.90;99.90
6379;DHT22;3222;48.858;10.128;2024-01-11T10:24:25;-1.90;99.90
6379;DHT22;3222;48.858;10.128;2024-01-11T10:26:57;-2.00;99.90
6379;DHT22;3222;48.858;10.128;2024-01-11T10:29:31;-2.00;99.90
6379;DHT22;3222;48.858;10.128;2024-01-11T10:31:57;-1.80;99.90
6379;DHT22;3222;48.858;10.128;2024-01-11T10:34:23;-1.70;99.90
6379;DHT22;3222;48.858;10.128;2024-01-11T10:36:50;-1.90;99.90
6379;DHT22;3222;48.858;10.128;2024-01-11T10:39:17;-1.90;99.90
6379;DHT22;3222;48.858;10.128;2024-01-11T10:41:47;-1.90;99.90
6379;DHT22;3222;48.858;10.128;2024-01-11T10:44:20;-1.80;99.90
6379;DHT22;3222;48.858;10.128;2024-01-11T10:46:50;-1.80;99.90
6379;DHT22;3222;48.858;10.128;2024-01-11T10:49:18;-1.50;99.90
6379;DHT22;3222;48.858;10.128;2024-01-11T10:51:49;-1.60;99.90
6379;DHT22;3222;48.858;10.128;2024-01-11T10:54:15;-1.60;99.90
6379;DHT22;3222;48.858;10.128;2024-01-11T10:56:42;-1.60;99.90
6379;DHT22;3222;48.858;10.128;2024-01-11T10:59:11;-1.60;99.90
6379;DHT22;3222;48.858;10.128;2024-01-11T11:01:39;-1.60;99.90
6379;DHT22;3222;48.858;10.128;2024-01-11T11:04:06;-1.70;99.90
6379;DHT22;3222;48.858;10.128;2024-01-11T11:06:34;-1.70;99.90
6379;DHT22;3222;48.858;10.128;2024-01-11T11:09:01;-1.70;99.90
6379;DHT22;3222;48.858;10.128;2024-01-11T11:11:30;-1.70;99.90
6379;DHT22;3222;48.858;10.128;2024-01-11T11:13:59;-1.70;99.90
6379;DHT22;3222;48.858;10.128;2024-01-11T11:16:26;-1.60;99.90
6379;DHT22;3222;48.858;10.128;2024-01-11T11:18:55;-1.60;99.90
6379;DHT22;3222;48.858;10.128;2024-01-11T11:21:21;-1.50;99.90
6379;DHT22;3222;48.858;10.128;2024-01-11T11:23:47;-1.40;99.90
6379;DHT22;3222;48.858;10.128;2024-01-11T11:26:15;-1.30;99.90
6379;DHT22;3222;48.858;10.128;2024-01-11T11:28:44;-1.30;99.90
6379;DHT22;3222;48.858;10.128;2024-01-11T11:31:13;-1.30;99.90
6379;DHT22;3222;48.858;10.128;2024-01-11T11:33:38;-1.30;99.90
6379;DHT22;3222;48.858;10.128;2024-01-11T11:36:05;-1.20;99.90
6379;DHT22;3222;48.858;10.128;2024-01-11T11:38:37;-1.20;99.90
6379;DHT22;3222;48.858;10.128;2024-01-11T11:41:03;-1.10;99.90
6379;DHT22;3222;48.858;10.128;2024-01-11T11:43:29;-1.00;99.90
6379;DHT22;3222;48.858;10.128;2024-01-11T11:45:57;-1.00;99.90
6379;DHT22;3222;48.858;10.128;2024-01-11T11:51:07;-0.90;99.90
6379;DHT22;3222;48.858;10.128;2024-01-11T11:53:38;-0.70;99.90
6379;DHT22;3222;48.858;10.128;2024-01-11T11:56:04;-0.40;99.90
6379;DHT22;3222;48.858;10.128;2024-01-11T11:58:32;-0.50;99.90
6379;DHT22;3222;48.858;10.128;2024-01-11T12:00:59;-0.60;99.90
6379;DHT22;3222;48.858;10.128;2024-01-11T12:03:33;-0.60;99.90
6379;DHT22;3222;48.858;10.128;2024-01-11T12:06:00;-0.60;99.90
6379;DHT22;3222;48.858;10.128;2024-01-11T12:08:26;-0.60;99.90
6379;DHT22;3222;48.858;10.128;2024-01-11T12:10:52;-0.60;99.90
6379;DHT22;3222;48.858;10.128;2024-01-11T12:13:18;-0.50;99.90
6379;DHT22;3222;48.858;10.128;2024-01-11T12:15:44;-0.40;99.90
6379;DHT22;3222;48.858;10.128;2024-01-11T12:18:10;-0.30;99.90
6379;DHT22;3222;48.858;10.128;2024-01-11T12:20:36;-0.40;99.90
6379;DHT22;3222;48.858;10.128;2024-01-11T12:23:02;-0.40;99.90
6379;DHT22;3222;48.858;10.128;2024-01-11T12:25:28;-0.40;99.90
6379;DHT22;3222;48.858;10.128;2024-01-11T12:27:55;-0.40;99.90
6379;DHT22;3222;48.858;10.128;2024-01-11T12:30:25;-0.40;99.90
6379;DHT22;3222;48.858;10.128;2024-01-11T12:32:50;-0.50;99.90
6379;DHT22;3222;48.858;10.128;2024-01-11T12:35:17;-0.50;99.90
6379;DHT22;3222;48.858;10.128;2024-01-11T12:37:56;-0.50;99.90
6379;DHT22;3222;48.858;10.128;2024-01-11T12:40:23;-0.50;99.90
6379;DHT22;3222;48.858;10.128;2024-01-11T12:42:49;-0.40;99.90
6379;DHT22;3222;48.858;10.128;2024-01-11T12:45:16;-0.50;99.90
6379;DHT22;3222;48.858;10.128;2024-01-11T12:47:43;-0.50;99.90
6379;DHT22;3222;48.858;10.128;2024-01-11T12:50:10;-0.60;99.90
6379;DHT22;3222;48.858;10.128;2024-01-11T12:52:40;-0.70;99.90
6379;DHT22;3222;48.858;10.128;2024-01-11T12:55:08;-0.80;99.90
6379;DHT22;3222;48.858;10.128;2024-01-11T12:57:43;-0.80;99.90
6379;DHT22;3222;48.858;10.128;2024-01-11T13:00:15;-0.80;99.90
6379;DHT22;3222;48.858;10.128;2024-01-11T13:02:42;-0.80;99.90
6379;DHT22;3222;48.858;10.128;2024-01-11T13:05:12;-0.70;99.90
6379;DHT22;3222;48.858;10.128;2024-01-11T13:07:37;-0.70;99.90
6379;DHT22;3222;48.858;10.128;2024-01-11T13:10:04;-0.70;99.90
6379;DHT22;3222;48.858;10.128;2024-01-11T13:12:30;-0.70;99.90
6379;DHT22;3222;48.858;10.128;2024-01-11T13:14:56;-0.70;99.90
6379;DHT22;3222;48.858;10.128;2024-01-11T13:17:22;-0.40;99.90
6379;DHT22;3222;48.858;10.128;2024-01-11T13:19:48;-0.30;99.90
6379;DHT22;3222;48.858;10.128;2024-01-11T13:22:13;-0.30;99.90
6379;DHT22;3222;48.858;10.128;2024-01-11T13:24:39;-0.40;99.90
6379;DHT22;3222;48.858;10.128;2024-01-11T13:27:05;-0.40;99.90
6379;DHT22;3222;48.858;10.128;2024-01-11T13:29:31;-0.40;99.90
6379;DHT22;3222;48.858;10.128;2024-01-11T13:31:57;-0.30;99.90
6379;DHT22;3222;48.858;10.128;2024-01-11T13:34:23;-0.30;99.90
6379;DHT22;3222;48.858;10.128;2024-01-11T13:36:49;-0.30;99.90
6379;DHT22;3222;48.858;10.128;2024-01-11T13:39:15;-0.40;99.90
6379;DHT22;3222;48.858;10.128;2024-01-11T13:41:43;-0.50;99.90
6379;DHT22;3222;48.858;10.128;2024-01-11T13:44:09;-0.40;99.90
6379;DHT22;3222;48.858;10.128;2024-01-11T13:46:37;-0.40;99.90
6379;DHT22;3222;48.858;10.128;2024-01-11T13:49:02;-0.30;99.90
6379;DHT22;3222;48.858;10.128;2024-01-11T13:51:28;-0.10;99.90
6379;DHT22;3222;48.858;10.128;2024-01-11T13:53:54;-0.30;99.90
6379;DHT22;3222;48.858;10.128;2024-01-11T13:56:19;-0.30;99.90
6379;DHT22;3222;48.858;10.128;2024-01-11T13:58:45;-0.40;99.90
6379;DHT22;3222;48.858;10.128;2024-01-11T14:01:12;-0.50;99.90
6379;DHT22;3222;48.858;10.128;2024-01-11T14:03:38;-0.50;99.90
6379;DHT22;3222;48.858;10.128;2024-01-11T14:06:04;-0.40;99.90
6379;DHT22;3222;48.858;10.128;2024-01-11T14:08:30;-0.50;99.90
6379;DHT22;3222;48.858;10.128;2024-01-11T14:10:56;-0.50;99.90
6379;DHT22;3222;48.858;10.128;2024-01-11T14:13:22;-0.40;99.90
6379;DHT22;3222;48.858;10.128;2024-01-11T14:15:48;-0.40;99.90
6379;DHT22;3222;48.858;10.128;2024-01-11T14:18:14;-0.20;99.90
6379;DHT22;3222;48.858;10.128;2024-01-11T14:20:39;-0.20;99.90
6379;DHT22;3222;48.858;10.128;2024-01-11T14:23:05;-0.30;99.90
6379;DHT22;3222;48.858;10.128;2024-01-11T14:25:31;-0.20;99.90
6379;DHT22;3222;48.858;10.128;2024-01-11T14:27:56;-0.20;99.90
6379;DHT22;3222;48.858;10.128;2024-01-11T14:30:22;-0.40;99.90
6379;DHT22;3222;48.858;10.128;2024-01-11T14:32:48;-0.60;99.90
6379;DHT22;3222;48.858;10.128;2024-01-11T14:35:14;-0.60;99.90
6379;DHT22;3222;48.858;10.128;2024-01-11T14:37:40;-0.60;99.90
6379;DHT22;3222;48.858;10.128;2024-01-11T14:40:07;-0.50;99.90
6379;DHT22;3222;48.858;10.128;2024-01-11T14:42:36;-0.50;99.90
6379;DHT22;3222;48.858;10.128;2024-01-11T14:45:02;-0.60;99.90
6379;DHT22;3222;48.858;10.128;2024-01-11T14:47:29;-0.70;99.90
6379;DHT22;3222;48.858;10.128;2024-01-11T14:49:55;-0.80;99.90
6379;DHT22;3222;48.858;10.128;2024-01-11T14:52:20;-0.80;99.90
6379;DHT22;3222;48.858;10.128;2024-01-11T14:54:46;-0.80;99.90
6379;DHT22;3222;48.858;10.128;2024-01-11T14:57:15;-0.80;99.90
6379;DHT22;3222;48.858;10.128;2024-01-11T14:59:41;-0.80;99.90
6379;DHT22;3222;48.858;10.128;2024-01-11T15:02:07;-0.80;99.90
6379;DHT22;3222;48.858;10.128;2024-01-11T15:04:33;-0.80;99.90
6379;DHT22;3222;48.858;10.128;2024-01-11T15:06:58;-0.80;99.90
6379;DHT22;3222;48.858;10.128;2024-01-11T15:09:24;-0.70;99.90
6379;DHT22;3222;48.858;10.128;2024-01-11T15:11:51;-0.70;99.90
6379;DHT22;3222;48.858;10.128;2024-01-11T15:14:17;-0.70;99.90
6379;DHT22;3222;48.858;10.128;2024-01-11T15:16:43;-0.70;99.90
6379;DHT22;3222;48.858;10.128;2024-01-11T15:19:11;-0.80;99.90
6379;DHT22;3222;48.858;10.128;2024-01-11T15:21:39;-0.90;99.90
6379;DHT22;3222;48.858;10.128;2024-01-11T15:24:05;-1.00;99.90
6379;DHT22;3222;48.858;10.128;2024-01-11T15:26:31;-0.90;99.90
6379;DHT22;3222;48.858;10.128;2024-01-11T15:28:57;-0.70;99.90
6379;DHT22;3222;48.858;10.128;2024-01-11T15:31:23;-0.80;99.90
6379;DHT22;3222;48.858;10.128;2024-01-11T15:33:51;-0.80;99.90
6379;DHT22;3222;48.858;10.128;2024-01-11T15:36:16;-1.00;99.90
6379;DHT22;3222;48.858;10.128;2024-01-11T15:38:43;-1.00;99.90
6379;DHT22;3222;48.858;10.128;2024-01-11T15:41:09;-0.90;99.90
6379;DHT22;3222;48.858;10.128;2024-01-11T15:43:35;-1.00;99.90
6379;DHT22;3222;48.858;10.128;2024-01-11T15:46:02;-1.10;99.90